createdAt,value
2022-10-21T00:02:26.927Z,3.20
2022-10-21T00:07:32.054Z,3.20
2022-10-21T00:12:38.695Z,3.20
2022-10-21T00:17:45.015Z,3.20
2022-10-21T00:22:50.176Z,3.20
2022-10-21T00:27:55.289Z,3.20
2022-10-21T00:33:02.951Z,3.30
2022-10-21T00:38:07.693Z,3.20
2022-10-21T00:43:13.742Z,3.20
2022-10-21T00:48:42.970Z,3.10
2022-10-21T00:53:50.441Z,3.10
2022-10-21T00:58:58.845Z,3.10
2022-10-21T01:04:06.024Z,3.10
2022-10-21T01:09:11.287Z,3.10
2022-10-21T01:14:25.302Z,3.10
2022-10-21T01:20:06.747Z,3.10
2022-10-21T01:25:26.843Z,3.10
2022-10-21T01:30:42.944Z,3.10
2022-10-21T01:36:06.198Z,3.00
2022-10-21T01:41:25.657Z,3.00
2022-10-21T01:46:33.946Z,2.90
2022-10-21T01:51:39.264Z,2.90
2022-10-21T01:56:46.803Z,2.90
2022-10-21T02:01:54.023Z,2.90
2022-10-21T02:06:59.212Z,2.90
2022-10-21T02:12:06.638Z,2.80
2022-10-21T02:17:15.279Z,2.80
2022-10-21T02:22:23.249Z,2.80
2022-10-21T02:27:28.473Z,2.80
2022-10-21T02:32:53.085Z,2.80
2022-10-21T02:38:22.542Z,2.80
2022-10-21T02:43:30.674Z,2.80
2022-10-21T02:48:37.990Z,2.70
2022-10-21T02:53:43.771Z,2.70
2022-10-21T02:58:59.844Z,2.70
2022-10-21T03:04:07.931Z,2.60
2022-10-21T03:09:14.984Z,2.60
2022-10-21T03:14:25.495Z,2.60
2022-10-21T03:19:30.658Z,2.60
2022-10-21T03:24:37.181Z,2.50
2022-10-21T03:29:42.687Z,2.50
2022-10-21T03:34:50.533Z,2.40
2022-10-21T03:39:55.680Z,2.40
2022-10-21T03:45:00.882Z,2.30
2022-10-21T03:50:10.249Z,2.30
2022-10-21T03:55:15.155Z,2.30
2022-10-21T04:00:24.350Z,2.20
2022-10-21T04:05:29.950Z,2.30
2022-10-21T04:10:36.855Z,2.30
2022-10-21T04:15:46.149Z,2.30
2022-10-21T04:20:51.882Z,2.30
2022-10-21T04:25:57.309Z,2.40
2022-10-21T04:31:02.509Z,2.50
2022-10-21T04:36:09.957Z,2.60
2022-10-21T04:41:20.386Z,2.60
2022-10-21T04:46:29.306Z,2.70
2022-10-21T04:51:36.230Z,2.70
2022-10-21T04:56:42.845Z,2.70
2022-10-21T05:01:50.989Z,2.70
2022-10-21T05:06:57.589Z,2.70
2022-10-21T05:12:04.387Z,2.70
2022-10-21T05:17:15.454Z,2.70
2022-10-21T05:22:20.699Z,2.80
2022-10-21T05:27:27.849Z,2.80
2022-10-21T05:32:48.081Z,2.80
2022-10-21T05:38:04.776Z,2.80
2022-10-21T05:43:12.660Z,2.90
2022-10-21T05:48:24.527Z,2.90
2022-10-21T05:53:35.920Z,3.00
2022-10-21T05:58:58.333Z,3.10
2022-10-21T06:04:11.949Z,3.10
2022-10-21T06:09:19.918Z,3.20
2022-10-21T06:14:28.124Z,3.30
2022-10-21T06:19:33.447Z,3.40
2022-10-21T06:24:38.484Z,3.50
2022-10-21T06:29:50.521Z,3.60
2022-10-21T06:34:56.658Z,3.70
2022-10-21T06:40:04.358Z,3.80
2022-10-21T06:45:16.092Z,3.90
2022-10-21T06:50:24.105Z,4.00
2022-10-21T06:55:32.022Z,4.10
2022-10-21T07:00:46.774Z,4.30
2022-10-21T07:05:59.348Z,4.40
2022-10-21T07:11:09.129Z,4.60
2022-10-21T07:16:24.159Z,4.80
2022-10-21T07:21:34.773Z,4.90
2022-10-21T07:26:45.696Z,5.00
2022-10-21T07:31:53.481Z,5.10
2022-10-21T07:36:59.063Z,5.20
2022-10-21T07:42:04.368Z,5.30
2022-10-21T07:47:12.566Z,5.40
2022-10-21T07:52:19.578Z,5.60
2022-10-21T07:57:27.232Z,5.60
2022-10-21T08:02:32.473Z,5.70
2022-10-21T08:07:39.592Z,5.80
2022-10-21T08:12:48.387Z,5.90
2022-10-21T08:17:53.634Z,5.90
2022-10-21T08:23:00.685Z,5.90
2022-10-21T08:28:12.292Z,6.10
2022-10-21T08:33:19.911Z,6.20
2022-10-21T08:38:25.100Z,6.30
2022-10-21T08:43:35.028Z,6.40
2022-10-21T08:48:45.742Z,6.50
2022-10-21T08:53:57.719Z,6.60
2022-10-21T08:59:03.666Z,6.70
2022-10-21T09:04:26.812Z,6.80
2022-10-21T09:09:40.895Z,6.90
2022-10-21T09:15:19.810Z,7.10
2022-10-21T09:21:08.477Z,7.20
2022-10-21T09:26:24.318Z,7.30
2022-10-21T09:31:30.458Z,7.50
2022-10-21T09:36:42.083Z,7.50
2022-10-21T09:42:07.362Z,7.60
2022-10-21T09:47:23.258Z,7.70
2022-10-21T09:52:32.941Z,7.80
2022-10-21T09:58:01.966Z,8.00
2022-10-21T10:03:09.159Z,8.00
2022-10-21T10:08:52.374Z,8.10
2022-10-21T10:13:57.529Z,8.20
2022-10-21T10:19:23.582Z,8.30
2022-10-21T10:24:34.968Z,8.40
2022-10-21T10:29:43.802Z,8.70
2022-10-21T10:40:27.156Z,9.20
2022-10-21T10:45:37.642Z,9.60
2022-10-21T10:50:55.510Z,9.60
2022-10-21T10:56:11.509Z,9.60
2022-10-21T11:01:20.210Z,9.80
2022-10-21T11:06:45.551Z,10.20
2022-10-21T11:11:55.984Z,10.00
2022-10-21T11:17:16.626Z,10.00
2022-10-21T11:23:08.235Z,10.00
2022-10-21T11:28:34.800Z,10.00
2022-10-21T11:33:51.673Z,10.10
2022-10-21T11:39:31.776Z,10.10
2022-10-21T11:44:50.236Z,10.10
2022-10-21T11:50:04.931Z,10.30
2022-10-21T11:55:26.547Z,10.40
2022-10-21T12:00:37.908Z,10.50
2022-10-21T12:05:57.957Z,10.70
2022-10-21T12:11:09.854Z,10.60
2022-10-21T12:16:19.322Z,10.50
2022-10-21T12:21:27.628Z,10.50
2022-10-21T12:31:53.618Z,10.60
2022-10-21T12:37:00.023Z,10.60
2022-10-21T12:42:21.488Z,10.70
2022-10-21T12:47:38.985Z,10.60
2022-10-21T12:52:49.154Z,10.60
2022-10-21T12:58:09.999Z,10.70
2022-10-21T13:03:21.139Z,10.80
2022-10-21T13:08:38.530Z,10.90
2022-10-21T13:13:48.785Z,10.90
2022-10-21T13:19:00.015Z,11.00
2022-10-21T13:24:45.872Z,10.90
2022-10-21T13:36:29.911Z,10.80
2022-10-21T13:41:36.156Z,10.70
2022-10-21T13:46:43.843Z,10.80
2022-10-21T13:51:50.668Z,10.70
2022-10-21T13:56:57.304Z,10.60
2022-10-21T14:02:03.939Z,10.50
2022-10-21T14:07:14.039Z,10.50
2022-10-21T14:12:34.539Z,10.40
2022-10-21T14:17:42.876Z,10.30
2022-10-21T14:22:52.605Z,10.30
2022-10-21T14:28:02.199Z,10.20
2022-10-21T14:33:11.212Z,10.10
2022-10-21T14:38:31.477Z,10.10
2022-10-21T14:43:40.376Z,10.00
2022-10-21T14:48:51.215Z,10.00
2022-10-21T14:54:02.039Z,10.00
2022-10-21T14:59:27.038Z,9.90
2022-10-21T15:04:53.316Z,9.90
2022-10-21T15:10:05.906Z,9.90
2022-10-21T15:15:53.428Z,9.90
2022-10-21T15:20:59.378Z,9.90
2022-10-21T15:26:12.762Z,9.80
2022-10-21T15:31:21.008Z,9.80
2022-10-21T15:36:26.666Z,9.70
2022-10-21T15:41:32.003Z,9.50
2022-10-21T15:46:38.820Z,9.40
2022-10-21T15:51:45.546Z,9.30
2022-10-21T15:56:55.917Z,9.20
2022-10-21T16:02:02.582Z,9.20
2022-10-21T16:07:19.932Z,9.10
2022-10-21T16:12:25.125Z,9.10
2022-10-21T16:17:30.351Z,9.10
2022-10-21T16:22:35.494Z,9.10
2022-10-21T16:27:55.776Z,9.10
2022-10-21T16:32:48.620Z,9.10
2022-10-21T16:37:53.967Z,9.10
2022-10-21T16:42:59.716Z,9.10
2022-10-21T16:48:06.240Z,9.10
2022-10-21T16:53:18.573Z,9.10
2022-10-21T16:58:23.718Z,9.10
2022-10-21T17:03:28.935Z,9.10
2022-10-21T17:08:34.124Z,9.10
2022-10-21T17:13:39.400Z,9.10
2022-10-21T17:18:44.728Z,9.10
2022-10-21T17:23:51.618Z,9.10
2022-10-21T17:28:57.349Z,9.10
2022-10-21T17:34:04.996Z,9.20
2022-10-21T17:39:10.179Z,9.10
2022-10-21T17:44:15.532Z,9.10
2022-10-21T17:49:21.762Z,9.10
2022-10-21T17:54:29.195Z,9.10
2022-10-21T17:59:33.876Z,9.10
2022-10-21T18:04:40.424Z,9.10
2022-10-21T18:09:46.787Z,9.10
2022-10-21T18:14:53.201Z,9.10
2022-10-21T18:19:58.328Z,9.00
2022-10-21T18:25:03.645Z,9.00
2022-10-21T18:30:09.985Z,9.00
2022-10-21T18:35:15.908Z,9.00
2022-10-21T18:40:21.233Z,9.00
2022-10-21T18:45:26.385Z,9.00
2022-10-21T18:50:31.753Z,9.00
2022-10-21T18:55:40.325Z,9.00
2022-10-21T19:00:45.692Z,8.90
2022-10-21T19:05:51.557Z,8.90
2022-10-21T19:10:56.863Z,8.90
2022-10-21T19:16:03.736Z,8.90
2022-10-21T19:21:08.868Z,8.90
2022-10-21T19:26:16.875Z,8.90
2022-10-21T19:31:21.986Z,8.90
2022-10-21T19:36:27.271Z,8.90
2022-10-21T19:41:32.710Z,8.90
2022-10-21T19:46:39.450Z,8.90
2022-10-21T19:51:44.717Z,9.00
2022-10-21T19:56:49.955Z,9.00
2022-10-21T20:01:55.182Z,8.90
2022-10-21T20:07:00.383Z,8.90
2022-10-21T20:12:05.613Z,8.90
2022-10-21T20:17:11.714Z,8.90
2022-10-21T20:22:17.942Z,8.90
2022-10-21T20:27:23.169Z,8.80
2022-10-21T20:32:28.821Z,8.70
2022-10-21T20:37:35.439Z,8.70
2022-10-21T20:42:40.511Z,8.70
2022-10-21T20:47:45.677Z,8.70
2022-10-21T20:52:50.830Z,8.70
2022-10-21T20:57:56.134Z,8.70
2022-10-21T21:03:01.301Z,8.70
2022-10-21T21:08:06.593Z,8.70
2022-10-21T21:13:11.761Z,8.70
2022-10-21T21:18:17.240Z,8.70
2022-10-21T21:23:22.391Z,8.80
2022-10-21T21:28:30.574Z,8.80
2022-10-21T21:33:35.492Z,8.80
2022-10-21T21:38:40.741Z,8.80
2022-10-21T21:43:48.201Z,8.90
2022-10-21T21:48:59.553Z,8.90
2022-10-21T21:54:07.402Z,8.90
2022-10-21T21:59:12.542Z,8.90
2022-10-21T22:04:17.760Z,8.80
2022-10-21T22:09:22.972Z,8.80
2022-10-21T22:14:28.065Z,8.80
2022-10-21T22:19:33.312Z,8.80
2022-10-21T22:24:38.556Z,8.70
2022-10-21T22:29:44.622Z,8.70
2022-10-21T22:34:49.788Z,8.70
2022-10-21T22:39:55.163Z,8.70
2022-10-21T22:45:00.316Z,8.70
2022-10-21T22:50:05.641Z,8.70
2022-10-21T22:55:10.891Z,8.70
2022-10-21T23:00:16.327Z,8.70
2022-10-21T23:05:21.586Z,8.70
2022-10-21T23:10:27.715Z,8.70
2022-10-21T23:15:37.114Z,8.70
2022-10-21T23:20:49.215Z,8.70
2022-10-21T23:25:54.607Z,8.70
2022-10-21T23:31:00.891Z,8.70
2022-10-21T23:36:06.395Z,8.70
2022-10-21T23:41:11.704Z,8.70
2022-10-21T23:46:17.588Z,8.70
2022-10-21T23:51:22.925Z,8.70
2022-10-21T23:56:29.604Z,8.80
